createdAt,value
2018-03-28T00:00:23.479Z,38.07
2018-03-28T00:02:49.495Z,37.92
2018-03-28T00:05:15.462Z,38.33
2018-03-28T00:07:47.753Z,38.74
2018-03-28T00:10:20.751Z,39.17
2018-03-28T00:12:46.737Z,39.12
2018-03-28T00:15:12.710Z,38.27
2018-03-28T00:17:38.680Z,39.47
2018-03-28T00:20:04.647Z,38.83
2018-03-28T00:22:30.618Z,38.32
2018-03-28T00:24:56.595Z,38.69
2018-03-28T00:27:22.610Z,38.80
2018-03-28T00:29:48.574Z,38.15
2018-03-28T00:32:14.544Z,38.01
2018-03-28T00:34:40.519Z,38.70
2018-03-28T00:37:06.515Z,38.38
2018-03-28T00:39:32.521Z,38.42
2018-03-28T00:41:58.490Z,38.47
2018-03-28T00:44:24.458Z,38.74
2018-03-28T00:46:50.426Z,38.12
2018-03-28T00:49:16.394Z,37.98
2018-03-28T00:51:42.371Z,39.05
2018-03-28T00:54:08.343Z,38.66
2018-03-28T00:56:34.309Z,38.64
2018-03-28T00:59:00.326Z,39.44
2018-03-28T01:01:26.338Z,38.43
2018-03-28T01:03:52.313Z,38.26
2018-03-28T01:06:19.137Z,38.30
2018-03-28T01:08:45.182Z,39.30
2018-03-28T01:11:11.214Z,38.35
2018-03-28T01:13:37.186Z,38.23
2018-03-28T01:16:03.190Z,38.43
2018-03-28T01:18:30.010Z,38.10
2018-03-28T01:20:56.079Z,37.92
2018-03-28T01:23:22.823Z,38.21
2018-03-28T01:25:49.589Z,38.92
2018-03-28T01:28:15.902Z,38.26
2018-03-28T01:30:41.869Z,38.45
2018-03-28T01:33:08.633Z,39.53
2018-03-28T01:35:34.595Z,38.49
2018-03-28T01:38:01.583Z,38.63
2018-03-28T01:40:27.550Z,38.73
2018-03-28T01:42:54.426Z,38.62
2018-03-28T01:45:21.178Z,38.20
2018-03-28T01:47:47.142Z,38.43
2018-03-28T01:50:14.223Z,38.24
2018-03-28T01:52:41.102Z,38.19
2018-03-28T01:55:07.106Z,38.64
2018-03-28T01:57:33.933Z,39.35
2018-03-28T01:59:59.997Z,38.64
2018-03-28T02:02:26.808Z,38.85
2018-03-28T02:04:52.770Z,38.44
2018-03-28T02:07:19.614Z,38.38
2018-03-28T02:09:46.302Z,38.22
2018-03-28T02:12:13.081Z,38.99
2018-03-28T02:14:39.105Z,39.28
2018-03-28T02:17:05.919Z,38.24
2018-03-28T02:19:32.865Z,38.05
2018-03-28T02:21:59.749Z,37.92
2018-03-28T02:24:25.833Z,38.61
2018-03-28T02:26:53.136Z,37.99
2018-03-28T02:29:20.070Z,37.95
2018-03-28T02:31:46.862Z,37.86
2018-03-28T02:34:13.671Z,38.21
2018-03-28T02:36:39.631Z,38.24
2018-03-28T02:39:05.644Z,37.94
2018-03-28T02:41:32.450Z,37.91
2018-03-28T02:43:59.187Z,37.95
2018-03-28T02:46:26.062Z,38.36
2018-03-28T02:48:52.068Z,38.72
2018-03-28T02:51:18.085Z,38.21
2018-03-28T02:53:44.999Z,38.04
2018-03-28T02:56:10.963Z,38.05
2018-03-28T02:58:36.926Z,38.87
2018-03-28T03:01:03.853Z,38.31
2018-03-28T03:03:29.865Z,38.00
2018-03-28T03:05:56.822Z,38.58
2018-03-28T03:08:23.850Z,38.24
2018-03-28T03:10:49.844Z,38.22
2018-03-28T03:13:16.856Z,38.36
2018-03-28T03:15:42.817Z,38.23
2018-03-28T03:18:08.775Z,38.26
2018-03-28T03:20:35.654Z,38.33
2018-03-28T03:23:02.505Z,38.86
2018-03-28T03:25:28.509Z,38.14
2018-03-28T03:27:54.475Z,38.01
2018-03-28T03:30:20.446Z,38.53
2018-03-28T03:32:46.421Z,38.20
2018-03-28T03:35:12.382Z,38.93
2018-03-28T03:37:39.289Z,39.04
2018-03-28T03:40:06.147Z,38.98
2018-03-28T03:42:32.171Z,39.02
2018-03-28T03:44:58.129Z,38.34
2018-03-28T03:47:24.090Z,38.74
2018-03-28T03:49:50.051Z,38.69
2018-03-28T03:52:16.034Z,39.07
2018-03-28T03:54:42.001Z,38.66
2018-03-28T03:57:08.010Z,38.86
2018-03-28T03:59:33.974Z,39.03
2018-03-28T04:01:59.940Z,38.29
2018-03-28T04:04:25.955Z,38.77
2018-03-28T04:06:51.924Z,38.63
2018-03-28T04:09:17.932Z,39.35
2018-03-28T04:11:43.895Z,38.89
2018-03-28T04:14:09.902Z,38.43
2018-03-28T04:16:35.969Z,40.19
2018-03-28T04:19:01.935Z,38.22
2018-03-28T04:21:28.021Z,38.73
2018-03-28T04:23:53.982Z,38.81
2018-03-28T04:26:19.946Z,39.16
2018-03-28T04:28:45.908Z,38.90
2018-03-28T04:31:11.873Z,38.81
2018-03-28T04:33:37.836Z,39.00
2018-03-28T04:36:03.798Z,38.71
2018-03-28T04:38:29.776Z,38.66
2018-03-28T04:40:55.768Z,38.71
2018-03-28T04:43:21.769Z,38.69
2018-03-28T04:45:47.730Z,38.87
2018-03-28T04:48:13.699Z,39.08
2018-03-28T04:50:39.717Z,38.72
2018-03-28T04:53:06.589Z,38.78
2018-03-28T04:55:33.503Z,39.50
2018-03-28T04:57:59.474Z,38.68
2018-03-28T05:00:25.484Z,38.50
2018-03-28T05:02:51.532Z,38.41
2018-03-28T05:05:17.534Z,38.26
2018-03-28T05:07:43.546Z,38.69
2018-03-28T05:10:09.519Z,38.55
2018-03-28T05:12:35.522Z,38.41
2018-03-28T05:15:02.339Z,38.71
2018-03-28T05:17:29.283Z,38.54
2018-03-28T05:19:55.282Z,38.45
2018-03-28T05:22:21.249Z,38.87
2018-03-28T05:24:48.275Z,38.77
2018-03-28T05:27:15.178Z,38.88
2018-03-28T05:29:42.168Z,38.32
2018-03-28T05:32:09.187Z,38.67
2018-03-28T05:34:36.134Z,38.24
2018-03-28T05:37:02.142Z,39.05
2018-03-28T05:39:28.159Z,39.04
2018-03-28T05:41:54.387Z,39.17
2018-03-28T05:44:21.364Z,39.40
2018-03-28T05:46:47.339Z,39.09
2018-03-28T05:49:14.266Z,38.98
2018-03-28T05:51:40.337Z,39.20
2018-03-28T05:54:07.346Z,39.22
2018-03-28T05:56:33.313Z,40.15
2018-03-28T05:59:00.257Z,39.44
2018-03-28T06:01:26.302Z,39.01
2018-03-28T06:03:53.243Z,39.24
2018-03-28T06:06:19.262Z,40.64
2018-03-28T06:08:46.228Z,40.01
2018-03-28T06:11:12.931Z,39.43
2018-03-28T06:13:39.837Z,40.34
2018-03-28T06:16:06.965Z,39.53
2018-03-28T06:18:33.733Z,39.65
2018-03-28T06:21:00.735Z,39.94
2018-03-28T06:23:26.765Z,39.74
2018-03-28T06:25:53.743Z,40.58
2018-03-28T06:28:19.725Z,40.36
2018-03-28T06:30:45.738Z,39.75
2018-03-28T06:33:12.514Z,39.93
2018-03-28T06:35:39.326Z,40.01
2018-03-28T06:38:06.327Z,40.15
2018-03-28T06:40:32.561Z,40.07
2018-03-28T06:42:58.527Z,40.15
2018-03-28T06:45:25.986Z,40.31
2018-03-28T06:47:51.951Z,40.07
2018-03-28T06:50:18.897Z,39.93
2018-03-28T06:52:45.847Z,40.07
2018-03-28T06:55:12.814Z,39.65
2018-03-28T06:57:39.777Z,40.75
2018-03-28T07:00:06.705Z,40.09
2018-03-28T07:02:33.661Z,39.88
2018-03-28T07:05:00.461Z,39.87
2018-03-28T07:07:27.380Z,39.89
2018-03-28T07:09:54.270Z,39.97
2018-03-28T07:12:20.290Z,40.58
2018-03-28T07:14:46.330Z,40.32
2018-03-28T07:17:12.323Z,40.10
2018-03-28T07:19:39.263Z,40.75
2018-03-28T07:22:06.217Z,40.56
2018-03-28T07:24:33.103Z,41.54
2018-03-28T07:26:59.106Z,40.10
2018-03-28T07:29:25.067Z,40.12
2018-03-28T07:31:51.037Z,41.90
2018-03-28T07:34:18.011Z,40.25
2018-03-28T07:36:44.940Z,41.44
2018-03-28T07:39:10.902Z,40.30
2018-03-28T07:41:36.872Z,40.51
2018-03-28T07:44:03.817Z,40.75
2018-03-28T07:46:30.637Z,40.76
2018-03-28T07:48:56.601Z,41.53
2018-03-28T07:51:22.570Z,40.44
2018-03-28T07:53:50.297Z,41.07
2018-03-28T07:56:17.283Z,40.75
2018-03-28T07:58:44.894Z,40.53
2018-03-28T08:01:10.900Z,40.71
2018-03-28T08:03:36.914Z,40.47
2018-03-28T08:06:02.919Z,40.47
2018-03-28T08:08:32.350Z,40.75
2018-03-28T08:10:58.342Z,40.93
2018-03-28T08:13:24.339Z,40.39
2018-03-28T08:15:50.302Z,40.21
2018-03-28T08:18:16.373Z,40.34
2018-03-28T08:20:42.409Z,40.74
2018-03-28T08:23:21.052Z,40.38
2018-03-28T08:25:57.625Z,40.59
2018-03-28T08:28:34.584Z,40.68
2018-03-28T08:31:22.254Z,40.66
2018-03-28T08:34:05.269Z,40.88
2018-03-28T08:36:31.309Z,40.57
2018-03-28T08:38:57.324Z,41.09
2018-03-28T08:41:23.369Z,41.43
2018-03-28T08:43:49.342Z,41.24
2018-03-28T08:46:15.304Z,40.35
2018-03-28T08:48:41.270Z,40.42
2018-03-28T08:51:07.248Z,40.55
2018-03-28T08:53:33.247Z,41.33
2018-03-28T08:55:59.258Z,40.58
2018-03-28T08:58:25.234Z,40.66
2018-03-28T09:00:51.197Z,41.22
2018-03-28T09:03:17.163Z,40.78
2018-03-28T09:05:43.138Z,42.10
2018-03-28T09:08:09.114Z,40.60
2018-03-28T09:10:35.076Z,40.76
2018-03-28T09:13:01.073Z,40.56
2018-03-28T09:15:27.700Z,41.40
2018-03-28T09:17:53.712Z,40.59
2018-03-28T09:20:19.680Z,40.72
2018-03-28T09:22:45.688Z,40.71
2018-03-28T09:25:12.724Z,40.42
2018-03-28T09:27:39.685Z,40.71
2018-03-28T09:30:05.737Z,40.69
2018-03-28T09:32:32.494Z,40.99
2018-03-28T09:34:58.556Z,41.33
2018-03-28T09:37:24.599Z,40.90
2018-03-28T09:39:51.579Z,40.73
2018-03-28T09:42:17.610Z,40.66
2018-03-28T09:44:44.503Z,40.89
2018-03-28T09:47:11.300Z,40.82
2018-03-28T09:49:37.263Z,40.71
2018-03-28T09:52:04.214Z,40.42
2018-03-28T09:54:30.177Z,40.77
2018-03-28T09:56:56.196Z,41.45
2018-03-28T09:59:22.202Z,41.40
2018-03-28T10:01:54.377Z,40.98
2018-03-28T10:04:20.442Z,41.25
2018-03-28T10:06:46.453Z,40.83
2018-03-28T10:09:13.216Z,41.17
2018-03-28T10:11:40.058Z,41.08
2018-03-28T10:14:06.978Z,41.09
2018-03-28T10:16:32.991Z,40.84
2018-03-28T10:18:59.955Z,41.40
2018-03-28T10:21:25.930Z,40.84
2018-03-28T10:23:57.805Z,40.91
2018-03-28T10:26:23.822Z,41.00
2018-03-28T10:28:49.860Z,41.12
2018-03-28T10:31:22.786Z,41.02
2018-03-28T10:33:48.758Z,41.43
2018-03-28T10:36:14.800Z,41.15
2018-03-28T10:38:41.590Z,42.58
2018-03-28T10:41:07.559Z,41.41
2018-03-28T10:43:33.559Z,41.70
2018-03-28T10:45:59.542Z,41.82
2018-03-28T10:48:25.510Z,41.04
2018-03-28T10:50:52.523Z,41.39
2018-03-28T10:53:19.435Z,41.33
2018-03-28T10:55:46.275Z,41.23
2018-03-28T10:58:12.235Z,41.87
2018-03-28T11:00:38.202Z,41.43
2018-03-28T11:03:04.188Z,41.46
2018-03-28T11:05:31.023Z,41.12
2018-03-28T11:07:56.982Z,41.15
2018-03-28T11:10:22.950Z,41.69
2018-03-28T11:12:49.774Z,41.39
2018-03-28T11:15:16.667Z,41.93
2018-03-28T11:17:43.695Z,42.07
2018-03-28T11:20:09.779Z,41.34
2018-03-28T11:22:35.751Z,41.23
2018-03-28T11:25:01.724Z,41.17
2018-03-28T11:27:28.146Z,41.21
2018-03-28T11:29:55.058Z,41.93
2018-03-28T11:32:21.065Z,42.69
2018-03-28T11:34:47.042Z,41.58
2018-03-28T11:37:13.998Z,41.85
2018-03-28T11:39:41.023Z,41.73
2018-03-28T11:42:08.024Z,41.92
2018-03-28T11:44:33.991Z,41.90
2018-03-28T11:47:02.090Z,41.39
2018-03-28T11:49:28.054Z,41.16
2018-03-28T11:51:56.094Z,41.28
2018-03-28T11:54:23.071Z,41.42
2018-03-28T11:56:49.113Z,41.67
2018-03-28T11:59:15.083Z,41.13
2018-03-28T12:01:41.067Z,41.67
2018-03-28T12:04:07.142Z,41.07
2018-03-28T12:06:33.107Z,40.94
2018-03-28T12:08:59.116Z,41.28
2018-03-28T12:11:25.135Z,41.39
2018-03-28T12:13:51.137Z,41.39
2018-03-28T12:16:17.102Z,41.16
2018-03-28T12:18:43.075Z,40.86
2018-03-28T12:21:09.051Z,41.43
2018-03-28T12:23:35.791Z,41.27
2018-03-28T12:26:02.731Z,41.37
2018-03-28T12:28:28.699Z,41.61
2018-03-28T12:30:54.711Z,41.14
2018-03-28T12:33:20.719Z,41.51
2018-03-28T12:35:46.695Z,41.75
2018-03-28T12:38:12.666Z,41.08
2018-03-28T12:40:38.634Z,41.01
2018-03-28T12:43:04.643Z,41.34
2018-03-28T12:45:30.613Z,41.25
2018-03-28T12:47:56.582Z,42.42
2018-03-28T12:50:22.553Z,41.38
2018-03-28T12:52:48.527Z,41.17
2018-03-28T12:55:14.552Z,41.13
2018-03-28T12:57:40.509Z,41.30
2018-03-28T13:00:06.471Z,41.19
2018-03-28T13:02:32.476Z,41.36
2018-03-28T13:04:58.434Z,41.91
2018-03-28T13:07:24.397Z,42.04
2018-03-28T13:09:50.403Z,41.86
2018-03-28T13:12:16.367Z,41.72
2018-03-28T13:14:42.462Z,41.82
2018-03-28T13:17:08.481Z,42.25
2018-03-28T13:19:34.508Z,41.56
2018-03-28T13:22:07.532Z,41.95
2018-03-28T13:24:33.511Z,41.30
2018-03-28T13:26:59.479Z,41.73
2018-03-28T13:29:25.458Z,41.52
2018-03-28T13:31:51.422Z,41.62
2018-03-28T13:34:17.403Z,41.88
2018-03-28T13:36:44.222Z,41.56
2018-03-28T13:39:10.235Z,41.66
2018-03-28T13:41:37.049Z,41.55
2018-03-28T13:44:03.957Z,41.95
2018-03-28T13:46:30.890Z,42.63
2018-03-28T13:48:56.879Z,41.35
2018-03-28T13:51:22.890Z,41.62
2018-03-28T13:53:49.813Z,41.49
2018-03-28T13:56:16.771Z,42.58
2018-03-28T13:58:43.522Z,41.60
2018-03-28T14:01:09.556Z,42.41
2018-03-28T14:03:35.536Z,41.81
2018-03-28T14:06:03.731Z,42.16
2018-03-28T14:08:29.707Z,41.43
2018-03-28T14:10:55.786Z,41.54
2018-03-28T14:13:21.907Z,41.93
2018-03-28T14:15:47.939Z,41.86
2018-03-28T14:18:13.952Z,42.00
2018-03-28T14:20:39.970Z,42.77
2018-03-28T14:23:05.948Z,42.37
2018-03-28T14:25:31.925Z,42.06
2018-03-28T14:27:57.907Z,42.10
2018-03-28T14:30:23.931Z,41.97
2018-03-28T14:32:50.005Z,42.07
2018-03-28T14:35:16.594Z,42.45
2018-03-28T14:37:42.965Z,42.71
2018-03-28T14:40:08.935Z,42.29
2018-03-28T14:42:34.917Z,42.05
2018-03-28T14:45:00.886Z,41.72
2018-03-28T14:47:27.809Z,41.88
2018-03-28T14:49:53.795Z,41.37
2018-03-28T14:52:19.768Z,41.20
2018-03-28T14:54:45.745Z,41.47
2018-03-28T14:57:11.730Z,41.49
2018-03-28T14:59:37.716Z,41.53
2018-03-28T15:02:03.697Z,41.08
2018-03-28T15:04:29.743Z,41.10
2018-03-28T15:06:55.723Z,41.86
2018-03-28T15:09:22.626Z,41.39
2018-03-28T15:11:49.695Z,41.59
2018-03-28T15:14:15.671Z,41.47
2018-03-28T15:16:41.695Z,41.15
2018-03-28T15:19:07.674Z,41.33
2018-03-28T15:21:34.444Z,41.60
2018-03-28T15:24:01.309Z,41.44
2018-03-28T15:26:27.274Z,41.35
2018-03-28T15:28:53.246Z,41.61
2018-03-28T15:31:20.166Z,41.93
2018-03-28T15:33:47.061Z,41.48
2018-03-28T15:36:13.989Z,41.45
2018-03-28T15:38:39.997Z,42.04
2018-03-28T15:41:05.963Z,41.54
2018-03-28T15:43:32.902Z,41.29
2018-03-28T15:45:59.830Z,41.20
2018-03-28T15:48:25.867Z,41.79
2018-03-28T15:50:51.843Z,41.56
2018-03-28T15:53:17.841Z,41.67
2018-03-28T15:55:44.826Z,41.41
2018-03-28T15:58:10.904Z,41.47
2018-03-28T16:00:36.878Z,42.09
2018-03-28T16:03:02.845Z,41.62
2018-03-28T16:05:29.814Z,41.71
2018-03-28T16:07:55.805Z,41.70
2018-03-28T16:10:21.799Z,41.65
2018-03-28T16:12:48.670Z,41.62
2018-03-28T16:15:14.714Z,41.71
2018-03-28T16:17:40.684Z,41.34
2018-03-28T16:20:06.649Z,41.41
2018-03-28T16:22:33.646Z,41.36
2018-03-28T16:24:59.634Z,41.88
2018-03-28T16:27:27.843Z,41.27
2018-03-28T16:29:53.955Z,41.27
2018-03-28T16:32:19.973Z,41.22
2018-03-28T16:34:45.962Z,41.56
2018-03-28T16:37:12.930Z,41.77
2018-03-28T16:39:39.923Z,41.51
2018-03-28T16:42:05.910Z,41.47
2018-03-28T16:44:32.847Z,41.53
2018-03-28T16:46:59.858Z,41.38
2018-03-28T16:49:26.859Z,41.72
2018-03-28T16:51:52.842Z,41.55
2018-03-28T16:54:19.590Z,41.37
2018-03-28T16:56:45.602Z,42.16
2018-03-28T16:59:12.750Z,41.60
2018-03-28T17:01:38.811Z,41.48
2018-03-28T17:04:04.802Z,42.12
2018-03-28T17:06:30.867Z,41.48
2018-03-28T17:08:56.878Z,41.52
2018-03-28T17:11:23.641Z,41.46
2018-03-28T17:13:50.634Z,41.64
2018-03-28T17:16:16.646Z,42.25
2018-03-28T17:18:42.650Z,41.71
2018-03-28T17:21:08.695Z,42.11
2018-03-28T17:23:34.701Z,41.47
2018-03-28T17:26:00.710Z,41.66
2018-03-28T17:28:27.634Z,41.46
2018-03-28T17:30:53.735Z,41.60
2018-03-28T17:33:19.970Z,41.87
2018-03-28T17:35:46.037Z,41.48
2018-03-28T17:38:12.918Z,41.57
2018-03-28T17:40:38.979Z,41.26
2018-03-28T17:43:05.803Z,41.44
2018-03-28T17:45:31.882Z,41.28
2018-03-28T17:47:58.922Z,41.09
2018-03-28T17:50:24.946Z,41.38
2018-03-28T17:52:50.939Z,41.30
2018-03-28T17:55:18.586Z,41.40
2018-03-28T17:57:46.775Z,41.42
2018-03-28T18:00:13.210Z,41.55
2018-03-28T18:02:39.870Z,41.36
2018-03-28T18:05:06.429Z,41.64
2018-03-28T18:07:33.778Z,42.29
2018-03-28T18:10:00.306Z,41.37
2018-03-28T18:12:26.869Z,41.61
2018-03-28T18:14:53.986Z,41.45
2018-03-28T18:17:21.333Z,41.59
2018-03-28T18:19:48.026Z,41.39
2018-03-28T18:22:14.702Z,41.47
2018-03-28T18:24:41.264Z,41.68
2018-03-28T18:27:08.737Z,41.89
2018-03-28T18:29:35.398Z,41.69
2018-03-28T18:32:03.042Z,41.24
2018-03-28T18:34:29.578Z,41.38
2018-03-28T18:36:56.650Z,41.68
2018-03-28T18:39:23.372Z,41.91
2018-03-28T18:41:50.102Z,41.82
2018-03-28T18:44:16.871Z,41.52
2018-03-28T18:46:43.610Z,41.81
2018-03-28T18:49:11.502Z,41.55
2018-03-28T18:51:38.070Z,41.65
2018-03-28T18:54:12.289Z,41.64
2018-03-28T18:56:39.158Z,41.43
2018-03-28T18:59:05.884Z,41.77
2018-03-28T19:01:33.857Z,42.01
2018-03-28T19:04:04.122Z,41.59
2018-03-28T19:06:30.882Z,41.54
2018-03-28T19:08:57.674Z,41.37
2018-03-28T19:11:26.414Z,41.76
2018-03-28T19:13:52.970Z,41.37
2018-03-28T19:16:19.895Z,41.60
2018-03-28T19:18:47.565Z,41.45
2018-03-28T19:21:14.608Z,41.27
2018-03-28T19:23:41.373Z,41.51
2018-03-28T19:26:08.137Z,41.35
2018-03-28T19:28:35.391Z,41.44
2018-03-28T19:31:02.902Z,41.43
2018-03-28T19:33:29.609Z,42.18
2018-03-28T19:35:56.456Z,41.47
2018-03-28T19:38:23.092Z,41.29
2018-03-28T19:40:49.814Z,42.08
2018-03-28T19:43:16.408Z,41.55
2018-03-28T19:45:43.205Z,41.45
2018-03-28T19:48:09.787Z,41.29
2018-03-28T19:50:36.637Z,42.06
2018-03-28T19:53:03.203Z,41.51
2018-03-28T19:55:29.718Z,41.53
2018-03-28T19:57:56.291Z,42.09
2018-03-28T20:00:22.831Z,41.79
2018-03-28T20:02:49.376Z,41.33
2018-03-28T20:05:16.722Z,41.70
2018-03-28T20:07:43.494Z,41.58
2018-03-28T20:10:09.997Z,41.44
2018-03-28T20:12:37.466Z,41.27
2018-03-28T20:15:03.974Z,41.61
2018-03-28T20:17:31.705Z,41.85
2018-03-28T20:19:58.297Z,41.40
2018-03-28T20:22:24.762Z,41.71
2018-03-28T20:24:52.127Z,41.59
2018-03-28T20:27:19.478Z,41.70
2018-03-28T20:29:45.998Z,42.28
2018-03-28T20:32:12.531Z,41.94
2018-03-28T20:34:39.044Z,41.80
2018-03-28T20:37:05.534Z,42.00
2018-03-28T20:39:31.966Z,42.07
2018-03-28T20:41:58.425Z,42.11
2018-03-28T20:44:27.817Z,42.41
2018-03-28T20:46:54.489Z,42.07
2018-03-28T20:49:21.063Z,41.83
2018-03-28T20:51:48.084Z,41.79
2018-03-28T20:54:14.108Z,42.51
2018-03-28T20:56:41.187Z,41.94
2018-03-28T20:59:09.266Z,42.09
2018-03-28T21:01:35.333Z,42.27
2018-03-28T21:04:02.461Z,42.21
2018-03-28T21:06:28.601Z,41.90
2018-03-28T21:08:54.565Z,42.06
2018-03-28T21:11:20.533Z,42.75
2018-03-28T21:13:46.540Z,42.25
2018-03-28T21:16:12.510Z,42.38
2018-03-28T21:18:38.505Z,42.32
2018-03-28T21:21:05.327Z,42.08
2018-03-28T21:23:31.287Z,42.16
2018-03-28T21:25:57.331Z,42.01
2018-03-28T21:28:23.298Z,42.79
2018-03-28T21:30:49.258Z,42.31
2018-03-28T21:33:15.282Z,42.39
2018-03-28T21:35:41.250Z,42.37
2018-03-28T21:38:07.214Z,42.88
2018-03-28T21:40:33.184Z,42.10
2018-03-28T21:42:59.141Z,42.12
2018-03-28T21:45:25.194Z,42.35
2018-03-28T21:47:51.325Z,42.30
2018-03-28T21:50:17.287Z,42.15
2018-03-28T21:52:43.376Z,42.40
2018-03-28T21:55:09.338Z,42.43
2018-03-28T21:57:35.302Z,42.36
2018-03-28T22:00:01.301Z,42.46
2018-03-28T22:02:27.270Z,42.24
2018-03-28T22:04:53.284Z,42.75
2018-03-28T22:07:19.249Z,42.67
2018-03-28T22:09:45.223Z,42.51
2018-03-28T22:12:11.193Z,42.19
2018-03-28T22:14:37.163Z,42.58
2018-03-28T22:17:03.129Z,42.54
2018-03-28T22:19:29.100Z,42.95
2018-03-28T22:21:55.109Z,42.38
2018-03-28T22:24:22.122Z,42.87
2018-03-28T22:26:49.090Z,42.60
2018-03-28T22:29:15.066Z,42.73
2018-03-28T22:31:41.036Z,42.84
2018-03-28T22:34:07.014Z,42.55
2018-03-28T22:36:33.022Z,42.60
2018-03-28T22:38:58.996Z,42.67
2018-03-28T22:41:25.801Z,42.77
2018-03-28T22:43:51.768Z,42.68
2018-03-28T22:46:17.733Z,43.09
2018-03-28T22:48:43.750Z,42.76
2018-03-28T22:51:10.522Z,42.52
2018-03-28T22:53:37.327Z,42.71
2018-03-28T22:56:03.297Z,42.93
2018-03-28T22:58:30.059Z,42.72
2018-03-28T23:00:56.028Z,42.76
2018-03-28T23:03:21.993Z,42.71
2018-03-28T23:05:47.962Z,43.07
2018-03-28T23:08:13.922Z,43.04
2018-03-28T23:10:39.901Z,43.09
2018-03-28T23:13:05.875Z,42.81
2018-03-28T23:15:31.874Z,42.98
2018-03-28T23:17:57.885Z,42.91
2018-03-28T23:20:23.982Z,43.15
2018-03-28T23:22:49.955Z,42.84
2018-03-28T23:25:15.923Z,42.85
2018-03-28T23:27:41.886Z,42.69
2018-03-28T23:30:07.845Z,43.21
2018-03-28T23:32:34.671Z,42.99
2018-03-28T23:35:00.639Z,43.05
2018-03-28T23:37:26.619Z,43.14
2018-03-28T23:39:52.588Z,43.02
2018-03-28T23:42:18.581Z,43.79
2018-03-28T23:44:44.573Z,42.99
2018-03-28T23:47:11.312Z,43.29
2018-03-28T23:49:38.322Z,43.19
2018-03-28T23:52:05.222Z,43.03
2018-03-28T23:54:31.187Z,43.35
2018-03-28T23:56:57.195Z,43.09
2018-03-28T23:59:23.159Z,43.52
